Time;durP1;ratioP1;P1;durP2;ratioP2;P2;SDS_P1;SDS_P2;PMS_P1;PMS_P2;Temp;Humidity;BMP_temperature;BMP_pressure;BME280_temperature;BME280_humidity;BME280_pressure;Samples;Min_cycle;Max_cycle;Signal;HPM_P1;HPM_P2
2021/08/21 00:01:20;;;;;;;13.05;8.98;;;13.10;99.90;;;;;;21143424;28;20492;-47
2021/08/21 00:11:21;;;;;;;11.75;7.80;;;12.90;99.90;;;;;;21143025;28;20112;-48
2021/08/21 00:21:23;;;;;;;22.55;7.28;;;12.70;99.90;;;;;;21142588;28;20067;-47
2021/08/21 00:31:27;;;;;;;10.25;6.60;;;12.70;99.90;;;;;;21141760;28;20109;-46
2021/08/21 00:41:31;;;;;;;14.45;9.55;;;12.60;99.90;;;;;;21232300;27;20023;-49
2021/08/21 00:51:33;;;;;;;11.18;8.20;;;12.50;99.90;;;;;;21223768;27;20380;-48
2021/08/21 01:01:36;;;;;;;13.23;7.20;;;12.50;99.90;;;;;;21241214;27;20061;-48
2021/08/21 01:11:38;;;;;;;11.50;6.43;;;12.60;99.90;;;;;;21240317;27;20067;-46
2021/08/21 01:21:39;;;;;;;11.85;7.70;;;12.70;99.90;;;;;;21203974;27;20101;-47
2021/08/21 01:31:41;;;;;;;11.93;7.85;;;12.80;99.90;;;;;;21135271;28;20091;-48
2021/08/21 01:41:43;;;;;;;19.20;8.10;;;12.90;99.90;;;;;;21134114;28;20058;-52
2021/08/21 01:51:49;;;;;;;12.85;8.55;;;12.80;99.90;;;;;;21134705;28;20476;-47
2021/08/21 02:01:57;;;;;;;11.30;6.47;;;12.70;99.90;;;;;;21132600;28;20043;-47
2021/08/21 02:12:16;;;;;;;17.23;9.93;;;12.80;99.90;;;;;;21131749;28;20108;-48
2021/08/21 02:22:25;;;;;;;13.55;8.07;;;12.60;99.90;;;;;;21130830;28;20104;-48
2021/08/21 02:32:27;;;;;;;16.48;9.68;;;12.50;99.90;;;;;;21130565;28;20503;-46
2021/08/21 02:42:29;;;;;;;12.18;9.02;;;12.40;99.90;;;;;;21129136;28;20088;-47
2021/08/21 02:52:30;;;;;;;15.52;10.00;;;12.50;99.90;;;;;;21128711;28;20140;-47
2021/08/21 03:02:32;;;;;;;13.93;8.20;;;12.30;99.90;;;;;;21128636;28;20039;-47
2021/08/21 03:12:34;;;;;;;15.95;9.63;;;12.20;99.90;;;;;;21145750;28;20492;-49
2021/08/21 03:22:39;;;;;;;13.57;7.68;;;12.30;99.90;;;;;;21144886;28;20031;-47
2021/08/21 03:32:45;;;;;;;14.95;7.85;;;12.30;99.90;;;;;;21126336;28;20113;-46
2021/08/21 03:42:49;;;;;;;12.90;9.02;;;12.00;99.90;;;;;;21095506;28;20060;-47
2021/08/21 03:52:51;;;;;;;13.68;8.30;;;12.00;99.90;;;;;;21060117;28;20087;-46
2021/08/21 04:02:53;;;;;;;17.23;8.13;;;12.10;99.90;;;;;;21059477;28;20125;-47
2021/08/21 04:13:02;;;;;;;14.48;7.97;;;12.10;99.90;;;;;;21044954;28;20068;-47
2021/08/21 04:23:05;;;;;;;13.30;8.50;;;12.10;99.90;;;;;;21101707;28;20081;-47
2021/08/21 04:33:10;;;;;;;14.50;8.88;;;12.10;99.90;;;;;;21139193;28;20136;-48
2021/08/21 04:43:16;;;;;;;16.48;10.20;;;12.10;99.90;;;;;;21139363;28;20266;-47
2021/08/21 04:53:18;;;;;;;12.38;8.18;;;12.20;99.90;;;;;;21138007;28;20414;-48
2021/08/21 05:03:21;;;;;;;15.32;8.18;;;12.30;99.90;;;;;;21137683;28;20031;-47
2021/08/21 05:13:24;;;;;;;11.77;7.80;;;12.50;99.90;;;;;;21136865;28;20059;-47
2021/08/21 05:23:26;;;;;;;10.95;7.20;;;12.60;99.90;;;;;;21135236;28;20100;-46
2021/08/21 05:33:28;;;;;;;11.20;6.55;;;12.70;99.90;;;;;;21134846;28;20154;-47
2021/08/21 05:43:30;;;;;;;11.02;6.82;;;12.80;99.90;;;;;;21133998;28;20163;-47
2021/08/21 05:53:32;;;;;;;11.15;6.45;;;13.00;99.90;;;;;;21151163;28;20438;-47
2021/08/21 06:03:34;;;;;;;13.35;6.50;;;13.20;99.90;;;;;;21150885;28;20026;-47
2021/08/21 06:13:36;;;;;;;11.70;5.70;;;13.40;99.90;;;;;;21149359;28;20063;-50
2021/08/21 06:23:38;;;;;;;9.02;5.10;;;13.60;99.90;;;;;;21149027;28;20108;-47
2021/08/21 06:33:40;;;;;;;18.55;4.70;;;14.00;99.90;;;;;;21147194;28;20132;-48
2021/08/21 06:43:42;;;;;;;5.18;3.30;;;15.90;99.90;;;;;;21148906;28;20085;-49
2021/08/21 06:53:49;;;;;;;5.68;3.22;;;17.00;99.90;;;;;;21146739;28;20120;-46
2021/08/21 07:03:50;;;;;;;4.80;3.35;;;19.10;99.90;;;;;;21146219;28;20067;-48
2021/08/21 07:13:53;;;;;;;8.20;2.85;;;19.70;99.90;;;;;;21145659;28;20119;-48
2021/08/21 07:23:55;;;;;;;4.18;2.70;;;20.40;99.90;;;;;;21144330;28;20055;-51
2021/08/21 07:33:57;;;;;;;5.40;2.78;;;22.30;99.90;;;;;;21143775;28;20083;-50
2021/08/21 07:43:59;;;;;;;3.70;2.80;;;23.10;99.60;;;;;;21063499;28;20095;-52
2021/08/21 07:54:01;;;;;;;10.98;3.25;;;24.30;97.60;;;;;;20991814;28;20072;-54
2021/08/21 08:04:03;;;;;;;8.05;3.45;;;25.00;93.70;;;;;;20991626;28;20063;-53
2021/08/21 08:14:05;;;;;;;3.95;2.75;;;25.10;93.40;;;;;;21036710;28;20064;-48
2021/08/21 08:24:07;;;;;;;2.85;2.30;;;25.30;92.80;;;;;;21127635;28;20059;-51
2021/08/21 08:34:09;;;;;;;4.90;3.00;;;25.50;91.50;;;;;;21137781;28;20080;-51
2021/08/21 08:44:11;;;;;;;5.88;2.63;;;25.80;92.00;;;;;;21071717;28;20086;-50
2021/08/21 08:54:13;;;;;;;4.95;2.47;;;26.20;90.70;;;;;;21071556;28;20063;-52
2021/08/21 09:04:23;;;;;;;5.13;2.85;;;26.60;90.20;;;;;;21070528;28;20074;-53
2021/08/21 09:14:30;;;;;;;3.40;2.22;;;26.90;87.60;;;;;;21070983;28;20066;-52
2021/08/21 09:24:33;;;;;;;6.38;3.03;;;27.10;85.50;;;;;;21091525;28;20081;-52
2021/08/21 09:34:35;;;;;;;7.25;2.75;;;26.70;87.00;;;;;;21130791;28;20405;-52
2021/08/21 09:44:43;;;;;;;3.67;2.30;;;26.60;88.20;;;;;;21079633;28;20082;-48
2021/08/21 09:55:04;;;;;;;3.45;2.28;;;27.00;84.90;;;;;;21067118;28;20078;-53
2021/08/21 10:05:08;;;;;;;4.25;2.47;;;27.30;84.90;;;;;;21065287;28;20090;-51
2021/08/21 10:15:12;;;;;;;8.80;2.80;;;27.90;85.80;;;;;;21104357;28;20071;-52
2021/08/21 10:25:15;;;;;;;3.40;2.35;;;28.00;82.30;;;;;;21148313;28;20067;-52
2021/08/21 10:35:38;;;;;;;3.97;2.60;;;28.00;80.20;;;;;;21146808;28;20097;-53
2021/08/21 10:45:41;;;;;;;6.75;2.72;;;27.60;84.10;;;;;;21146680;28;20067;-54
2021/08/21 10:55:44;;;;;;;4.68;2.30;;;27.20;82.40;;;;;;21145875;28;20067;-51
2021/08/21 11:05:54;;;;;;;4.50;2.30;;;26.10;86.70;;;;;;21145255;28;20117;-50
2021/08/21 11:16:00;;;;;;;9.02;2.42;;;27.30;83.00;;;;;;21095680;28;20064;-52
2021/08/21 11:26:22;;;;;;;10.05;2.20;;;28.20;78.60;;;;;;21055020;28;20040;-48
2021/08/21 11:36:24;;;;;;;2.42;1.95;;;28.30;81.40;;;;;;21130550;28;20087;-51
2021/08/21 11:46:27;;;;;;;3.65;1.75;;;28.40;79.70;;;;;;21143730;28;20051;-51
2021/08/21 11:56:29;;;;;;;4.53;2.20;;;28.10;79.20;;;;;;21142480;28;20165;-48
2021/08/21 12:06:34;;;;;;;2.35;1.70;;;27.90;80.50;;;;;;21142926;28;20358;-48
2021/08/21 12:16:38;;;;;;;2.53;1.90;;;28.10;80.10;;;;;;21085818;28;20212;-53
2021/08/21 12:26:46;;;;;;;5.13;2.33;;;28.40;79.30;;;;;;21056617;28;20085;-51
2021/08/21 12:36:48;;;;;;;2.85;2.20;;;28.20;77.80;;;;;;21097607;28;20103;-51
2021/08/21 12:47:13;;;;;;;5.15;2.20;;;28.30;79.10;;;;;;21070706;28;20117;-51
2021/08/21 12:57:18;;;;;;;4.75;2.42;;;28.60;79.00;;;;;;21069956;28;20216;-50
2021/08/21 13:07:20;;;;;;;4.50;2.72;;;28.90;78.30;;;;;;21070108;28;20097;-52
2021/08/21 13:17:22;;;;;;;8.35;2.50;;;29.00;78.70;;;;;;21066919;28;20501;-52
2021/08/21 13:27:24;;;;;;;5.28;2.78;;;27.90;79.00;;;;;;20984249;28;20068;-52
2021/08/21 13:37:27;;;;;;;4.40;2.88;;;27.60;80.10;;;;;;20983268;28;20138;-52
2021/08/21 13:47:28;;;;;;;4.28;2.90;;;27.80;80.20;;;;;;20982100;28;20060;-54
2021/08/21 13:57:31;;;;;;;4.20;3.03;;;27.70;80.50;;;;;;20964080;28;20116;-50
2021/08/21 14:07:33;;;;;;;3.78;3.10;;;27.50;81.70;;;;;;20965521;28;20132;-53
2021/08/21 14:17:35;;;;;;;4.60;2.70;;;28.10;80.20;;;;;;21035551;28;20027;-52
2021/08/21 14:27:37;;;;;;;4.47;3.03;;;27.80;79.80;;;;;;21043170;28;20423;-54
2021/08/21 14:37:39;;;;;;;4.57;3.22;;;27.60;80.90;;;;;;21060550;28;20044;-53
2021/08/21 14:47:40;;;;;;;5.70;3.58;;;26.90;81.40;;;;;;21059320;28;20120;-52
2021/08/21 14:57:42;;;;;;;5.40;2.88;;;26.70;81.90;;;;;;21057578;28;20617;-55
2021/08/21 15:07:44;;;;;;;4.28;3.33;;;26.60;82.70;;;;;;21059619;28;20031;-50
2021/08/21 15:17:46;;;;;;;4.50;3.55;;;25.40;83.00;;;;;;21056927;28;20032;-53
2021/08/21 15:27:48;;;;;;;5.90;3.72;;;25.20;84.50;;;;;;21055909;28;20047;-54
2021/08/21 15:37:49;;;;;;;5.68;3.30;;;24.30;86.10;;;;;;21138079;28;20097;-49
2021/08/21 15:47:53;;;;;;;4.40;3.90;;;23.80;89.10;;;;;;21138861;28;20038;-50
2021/08/21 15:57:56;;;;;;;7.00;3.30;;;24.00;88.40;;;;;;21139019;28;20023;-48
2021/08/21 16:08:00;;;;;;;6.40;3.60;;;24.80;86.50;;;;;;21143156;28;20039;-53
2021/08/21 16:18:04;;;;;;;5.82;3.83;;;25.00;85.00;;;;;;21096485;28;20084;-51
2021/08/21 16:28:05;;;;;;;7.47;3.85;;;22.40;90.70;;;;;;21096606;28;20044;-53
2021/08/21 16:38:07;;;;;;;9.05;4.30;;;21.80;91.60;;;;;;21116216;28;20495;-51
2021/08/21 16:48:12;;;;;;;6.60;4.05;;;20.80;94.60;;;;;;21084001;28;20753;-53
2021/08/21 16:58:20;;;;;;;6.22;4.03;;;19.40;97.40;;;;;;21083681;28;20093;-49
2021/08/21 17:08:22;;;;;;;8.13;3.90;;;19.10;98.40;;;;;;21082554;28;20028;-48
2021/08/21 17:18:27;;;;;;;7.80;3.90;;;18.70;99.80;;;;;;21080649;28;20028;-50
2021/08/21 17:28:30;;;;;;;6.68;4.60;;;18.20;99.90;;;;;;21080584;28;20070;-52
2021/08/21 17:38:33;;;;;;;10.40;4.88;;;17.80;99.90;;;;;;21079926;28;20058;-52
2021/08/21 17:48:35;;;;;;;8.02;5.20;;;17.50;99.90;;;;;;21079775;28;20028;-48
2021/08/21 17:58:38;;;;;;;8.45;5.10;;;17.20;99.90;;;;;;21079705;28;20397;-49
2021/08/21 18:08:40;;;;;;;10.13;7.13;;;16.70;99.90;;;;;;21079704;28;20068;-50
2021/08/21 18:18:42;;;;;;;11.20;5.75;;;16.50;99.90;;;;;;21077674;28;20024;-48
2021/08/21 18:28:47;;;;;;;8.60;6.05;;;16.20;99.90;;;;;;21081391;28;20052;-48
2021/08/21 18:38:50;;;;;;;9.65;6.75;;;16.00;99.90;;;;;;21157137;28;20537;-52
2021/08/21 18:48:53;;;;;;;13.43;6.75;;;15.70;99.90;;;;;;21155689;28;20039;-47
2021/08/21 18:58:55;;;;;;;10.10;5.93;;;15.60;99.90;;;;;;21157545;28;20089;-50
2021/08/21 19:08:57;;;;;;;10.15;5.65;;;15.50;99.90;;;;;;21156192;28;20027;-51
2021/08/21 19:19:00;;;;;;;7.70;5.63;;;15.30;99.90;;;;;;21081039;28;20028;-48
2021/08/21 19:29:02;;;;;;;7.55;4.88;;;15.30;99.90;;;;;;21080091;28;20048;-47
2021/08/21 19:39:05;;;;;;;9.27;5.38;;;15.30;99.90;;;;;;21154245;28;20044;-48
2021/08/21 19:49:07;;;;;;;9.52;6.82;;;15.10;99.90;;;;;;21153675;28;20076;-49
2021/08/21 19:59:09;;;;;;;12.07;6.65;;;15.10;99.90;;;;;;21153493;28;20031;-47
2021/08/21 20:09:11;;;;;;;11.18;7.13;;;15.00;99.90;;;;;;21153964;28;20027;-48
2021/08/21 20:19:13;;;;;;;11.80;7.53;;;15.00;99.90;;;;;;21077299;28;20032;-48
2021/08/21 20:29:16;;;;;;;10.02;7.30;;;14.80;99.90;;;;;;21079785;28;20110;-48
2021/08/21 20:39:19;;;;;;;10.65;8.02;;;14.70;99.90;;;;;;21090350;28;20538;-48
2021/08/21 20:49:21;;;;;;;8.20;6.00;;;14.60;99.90;;;;;;21050367;28;20044;-48
2021/08/21 20:59:23;;;;;;;10.35;6.18;;;14.60;99.90;;;;;;21078290;28;20036;-48
2021/08/21 21:09:25;;;;;;;10.77;6.07;;;14.70;99.90;;;;;;21082184;28;20032;-47
2021/08/21 21:19:27;;;;;;;9.60;6.00;;;14.90;99.90;;;;;;21080004;28;20105;-47
2021/08/21 21:29:33;;;;;;;9.35;5.88;;;15.00;99.90;;;;;;21079760;28;20101;-51
2021/08/21 21:39:36;;;;;;;11.65;6.95;;;15.20;99.90;;;;;;21078939;28;20153;-47
2021/08/21 21:49:39;;;;;;;7.78;5.90;;;15.10;99.90;;;;;;21078915;28;20107;-47
2021/08/21 21:59:41;;;;;;;8.30;5.40;;;15.20;99.90;;;;;;21078460;28;20058;-47
2021/08/21 22:09:44;;;;;;;9.75;5.63;;;15.00;99.90;;;;;;21076515;28;20125;-47
2021/08/21 22:19:45;;;;;;;9.93;6.65;;;14.80;99.90;;;;;;21075674;28;20039;-50
2021/08/21 22:29:47;;;;;;;10.02;6.13;;;14.50;99.90;;;;;;21091725;28;20500;-47
2021/08/21 22:39:49;;;;;;;11.43;7.32;;;14.40;99.90;;;;;;21159429;28;20032;-48
2021/08/21 22:49:51;;;;;;;11.30;6.18;;;14.40;99.90;;;;;;21159043;28;20031;-48
2021/08/21 22:59:53;;;;;;;15.50;9.63;;;14.60;99.90;;;;;;21158204;28;20031;-49
2021/08/21 23:09:54;;;;;;;12.30;8.75;;;14.60;99.90;;;;;;21157442;28;20031;-50
2021/08/21 23:19:56;;;;;;;17.40;11.02;;;14.80;99.90;;;;;;21073623;28;20024;-49
2021/08/21 23:29:58;;;;;;;14.82;9.90;;;14.60;99.90;;;;;;21080917;28;20047;-50
2021/08/21 23:40:00;;;;;;;13.55;9.57;;;14.90;99.90;;;;;;21156074;28;20061;-48
2021/08/21 23:50:02;;;;;;;14.82;9.50;;;14.90;99.90;;;;;;21155785;28;20024;-52
